Time;durP1;ratioP1;P1;durP2;ratioP2;P2;SDS_P1;SDS_P2;PMS_P1;PMS_P2;Temp;Humidity;BMP_temperature;BMP_pressure;BME280_temperature;BME280_humidity;BME280_pressure;Samples;Min_cycle;Max_cycle;Signal;HPM_P1;HPM_P2
2022/01/21 00:01:32;;;;;;;0.20;0.20;;;1.40;99.90;;;;;;5116722;28;20221;-74
2022/01/21 00:03:58;;;;;;;0.45;0.20;;;1.70;99.90;;;;;;5112076;28;20532;-74
2022/01/21 00:06:24;;;;;;;0.10;0.10;;;1.80;99.90;;;;;;5111835;28;20173;-74
2022/01/21 00:08:51;;;;;;;0.20;0.20;;;1.90;99.90;;;;;;5130227;28;20184;-73
2022/01/21 00:11:18;;;;;;;1.40;0.30;;;2.00;99.90;;;;;;5111930;28;20208;-73
2022/01/21 00:13:45;;;;;;;0.30;0.30;;;2.00;99.90;;;;;;5134997;27;20186;-73
2022/01/21 00:16:15;;;;;;;0.20;0.20;;;2.00;99.90;;;;;;5150709;27;20231;-72
2022/01/21 00:18:45;;;;;;;0.45;0.40;;;2.00;99.90;;;;;;5132262;27;20173;-73
2022/01/21 00:32:09;;;;;;;1.42;0.63;;;1.90;99.90;;;;;;5129981;28;20216;-73
2022/01/21 00:34:36;;;;;;;1.88;1.20;;;2.00;99.90;;;;;;5111342;28;20206;-73
2022/01/21 00:37:03;;;;;;;1.80;0.55;;;2.00;99.90;;;;;;5111565;28;20165;-72
2022/01/21 00:39:31;;;;;;;0.88;0.55;;;2.00;99.90;;;;;;5111536;28;20186;-73
2022/01/21 00:44:23;;;;;;;1.02;0.70;;;2.00;99.90;;;;;;5118546;28;20225;-73
2022/01/21 00:46:49;;;;;;;0.60;0.40;;;2.10;99.90;;;;;;5091156;28;20179;-73
2022/01/21 00:49:15;;;;;;;0.20;0.20;;;2.10;99.90;;;;;;5109331;28;20171;-73
2022/01/21 00:51:42;;;;;;;0.38;0.20;;;2.20;99.90;;;;;;5091098;28;20175;-73
2022/01/21 00:54:08;;;;;;;0.43;0.20;;;2.80;99.90;;;;;;5109234;28;20214;-73
2022/01/21 00:56:34;;;;;;;0.20;0.20;;;2.80;99.90;;;;;;5091147;28;20171;-72
2022/01/21 00:59:00;;;;;;;0.10;0.10;;;3.00;99.90;;;;;;5109372;28;20505;-73
2022/01/21 01:01:26;;;;;;;0.15;0.15;;;3.10;99.90;;;;;;5090863;28;20245;-73
2022/01/21 01:03:53;;;;;;;0.20;0.20;;;3.00;99.90;;;;;;5109090;28;20159;-73
2022/01/21 01:06:19;;;;;;;0.20;0.20;;;2.80;99.90;;;;;;5109144;28;20231;-73
2022/01/21 01:08:45;;;;;;;0.13;0.13;;;2.80;99.90;;;;;;5091121;28;20175;-73
2022/01/21 01:21:38;;;;;;;0.13;0.13;;;2.30;99.90;;;;;;5109115;28;20182;-73
2022/01/21 01:29:17;;;;;;;0.98;0.20;;;2.50;99.90;;;;;;5108992;28;20158;-74
2022/01/21 01:31:43;;;;;;;0.13;0.13;;;2.40;99.90;;;;;;5109167;28;20156;-73
2022/01/21 01:34:09;;;;;;;0.10;0.10;;;2.30;99.90;;;;;;5090600;28;20238;-73
2022/01/21 01:36:35;;;;;;;0.20;0.20;;;2.20;99.90;;;;;;5108994;28;20181;-72
2022/01/21 01:39:16;;;;;;;0.20;0.20;;;2.10;99.90;;;;;;5111832;28;20178;-73
2022/01/21 01:41:57;;;;;;;0.10;0.10;;;2.00;99.90;;;;;;5108694;28;20677;-73
2022/01/21 01:50:06;;;;;;;0.20;0.20;;;1.90;99.90;;;;;;5089142;28;20199;-72
2022/01/21 01:52:33;;;;;;;0.10;0.10;;;1.90;99.90;;;;;;5094204;28;20232;-73
2022/01/21 01:54:59;;;;;;;0.57;0.20;;;1.80;99.90;;;;;;5093999;28;20261;-72
2022/01/21 01:57:25;;;;;;;1.35;0.20;;;1.80;99.90;;;;;;5112408;28;20167;-72
2022/01/21 01:59:51;;;;;;;0.10;0.10;;;1.90;99.90;;;;;;5094031;28;20218;-72
2022/01/21 02:02:19;;;;;;;0.20;0.20;;;1.90;99.90;;;;;;5112323;28;20167;-73
2022/01/21 02:04:46;;;;;;;0.20;0.20;;;1.90;99.90;;;;;;5112212;28;20201;-73
2022/01/21 02:07:13;;;;;;;0.75;0.20;;;2.00;99.90;;;;;;5112265;28;20176;-73
2022/01/21 02:09:39;;;;;;;0.10;0.10;;;2.00;99.90;;;;;;5093895;28;20179;-73
2022/01/21 02:12:06;;;;;;;0.57;0.30;;;2.10;99.90;;;;;;5093868;28;20202;-73
2022/01/21 02:14:43;;;;;;;0.10;0.10;;;2.40;99.90;;;;;;5111983;28;20199;-73
2022/01/21 02:17:24;;;;;;;0.20;0.20;;;2.50;99.90;;;;;;5111942;28;20174;-73
2022/01/21 02:22:39;;;;;;;0.00;0.00;;;2.70;99.90;;;;;;5111990;28;20166;-73
2022/01/21 02:25:16;;;;;;;0.68;0.20;;;2.70;99.90;;;;;;5093597;28;20580;-73
2022/01/21 02:27:50;;;;;;;0.40;0.40;;;2.80;99.90;;;;;;5093655;28;20182;-73
2022/01/21 02:30:18;;;;;;;0.30;0.20;;;2.70;99.90;;;;;;5111715;28;20190;-73
2022/01/21 02:32:50;;;;;;;1.10;0.28;;;2.80;99.90;;;;;;5111671;28;20215;-73
2022/01/21 02:35:17;;;;;;;0.82;0.40;;;2.80;99.90;;;;;;5110544;28;20211;-73
2022/01/21 02:37:44;;;;;;;0.30;0.30;;;2.70;99.90;;;;;;5110331;28;20163;-74
2022/01/21 02:40:11;;;;;;;3.17;0.32;;;2.60;99.90;;;;;;5110025;28;20152;-73
2022/01/21 02:42:38;;;;;;;0.20;0.20;;;2.60;99.90;;;;;;5109976;28;20197;-73
2022/01/21 02:45:05;;;;;;;1.60;1.27;;;2.40;99.90;;;;;;5111179;28;20191;-73
2022/01/21 02:47:31;;;;;;;1.55;0.20;;;2.30;99.90;;;;;;5109868;28;20206;-72
2022/01/21 02:49:57;;;;;;;2.72;0.20;;;2.20;99.90;;;;;;5110021;28;20159;-73
2022/01/21 02:52:27;;;;;;;2.45;1.38;;;2.00;99.90;;;;;;5111231;28;20217;-72
2022/01/21 02:54:53;;;;;;;6.80;2.00;;;2.00;99.90;;;;;;5111145;28;20202;-73
2022/01/21 02:57:19;;;;;;;3.17;2.05;;;1.80;99.90;;;;;;5111120;28;20166;-72
2022/01/21 02:59:45;;;;;;;3.60;2.00;;;1.60;99.90;;;;;;5110960;28;20211;-73
2022/01/21 03:02:14;;;;;;;2.58;1.83;;;1.40;99.90;;;;;;5111156;28;20639;-73
2022/01/21 03:05:01;;;;;;;3.28;1.83;;;1.30;99.90;;;;;;5109830;28;20237;-73
2022/01/21 03:07:28;;;;;;;3.25;2.20;;;1.20;99.90;;;;;;5111143;28;20219;-73
2022/01/21 03:09:54;;;;;;;3.47;1.77;;;1.10;99.90;;;;;;5110903;28;20175;-72
2022/01/21 03:12:21;;;;;;;5.05;2.35;;;1.00;99.90;;;;;;5092781;28;20164;-73
2022/01/21 03:14:48;;;;;;;6.82;2.70;;;0.90;99.90;;;;;;5110690;28;20199;-73
2022/01/21 03:17:14;;;;;;;5.82;2.80;;;0.70;99.90;;;;;;5110754;28;20223;-72
2022/01/21 03:19:39;;;;;;;8.02;2.70;;;0.60;99.90;;;;;;5092413;28;20156;-72
2022/01/21 03:22:05;;;;;;;3.53;2.38;;;0.70;99.90;;;;;;5110744;28;20159;-73
2022/01/21 03:24:31;;;;;;;4.93;2.63;;;0.70;99.90;;;;;;5110636;28;20203;-73
2022/01/21 03:26:58;;;;;;;3.80;2.40;;;0.70;99.90;;;;;;5110613;28;20186;-73
2022/01/21 03:29:23;;;;;;;5.55;2.78;;;0.70;99.90;;;;;;5110539;28;20159;-73
2022/01/21 03:31:49;;;;;;;3.53;2.08;;;0.80;99.90;;;;;;5092216;28;20189;-73
2022/01/21 03:34:15;;;;;;;4.10;2.50;;;0.80;99.90;;;;;;5092048;28;21705;-73
2022/01/21 03:36:42;;;;;;;8.85;2.42;;;0.90;99.90;;;;;;5110394;28;20177;-73
2022/01/21 03:39:08;;;;;;;7.95;2.33;;;0.90;99.90;;;;;;5110374;28;20148;-73
2022/01/21 03:41:34;;;;;;;5.07;2.55;;;0.90;99.90;;;;;;5110221;28;20155;-72
2022/01/21 03:44:00;;;;;;;6.05;2.35;;;0.90;99.90;;;;;;5110212;28;20177;-73
2022/01/21 03:46:26;;;;;;;2.03;0.77;;;1.00;99.90;;;;;;5110167;28;20152;-72
2022/01/21 03:48:52;;;;;;;3.03;0.93;;;1.40;99.90;;;;;;5110190;28;20159;-73
2022/01/21 03:51:19;;;;;;;0.50;0.50;;;1.50;99.90;;;;;;5091906;28;20172;-72
2022/01/21 03:53:46;;;;;;;0.93;0.43;;;1.70;99.90;;;;;;5110010;28;20234;-73
2022/01/21 03:56:13;;;;;;;0.50;0.40;;;1.80;99.90;;;;;;5091700;28;20198;-73
2022/01/21 03:58:39;;;;;;;1.08;0.40;;;1.70;99.90;;;;;;5110029;28;20505;-73
2022/01/21 04:01:05;;;;;;;0.63;0.50;;;1.40;99.90;;;;;;5108157;28;20269;-73
2022/01/21 04:03:32;;;;;;;1.08;0.52;;;1.20;99.90;;;;;;5110082;28;20159;-74
2022/01/21 04:05:58;;;;;;;0.63;0.47;;;1.00;99.90;;;;;;5091732;28;20222;-73
2022/01/21 04:08:24;;;;;;;0.82;0.32;;;1.10;99.90;;;;;;5109833;28;20538;-72
2022/01/21 04:10:50;;;;;;;0.38;0.30;;;1.00;99.90;;;;;;5091630;28;20236;-74
2022/01/21 04:13:19;;;;;;;0.68;0.57;;;1.00;99.90;;;;;;5091618;28;20168;-74
2022/01/21 04:15:50;;;;;;;1.40;0.40;;;0.80;99.90;;;;;;5092314;28;20214;-74
2022/01/21 04:18:17;;;;;;;0.73;0.28;;;0.60;99.90;;;;;;5091691;28;20170;-73
2022/01/21 04:20:46;;;;;;;3.40;0.20;;;0.50;99.90;;;;;;5109901;28;20151;-75
2022/01/21 04:23:12;;;;;;;2.53;0.20;;;0.40;99.90;;;;;;5108389;28;20167;-73
2022/01/21 04:25:40;;;;;;;0.40;0.30;;;0.50;99.90;;;;;;5109571;28;20187;-73
2022/01/21 04:28:07;;;;;;;1.17;0.65;;;0.40;99.90;;;;;;5091691;28;20615;-73
2022/01/21 04:30:33;;;;;;;0.13;0.10;;;0.40;99.90;;;;;;5091375;28;20234;-73
2022/01/21 04:33:00;;;;;;;0.65;0.30;;;0.40;99.90;;;;;;5108557;28;20178;-74
2022/01/21 04:35:27;;;;;;;0.88;0.32;;;0.40;99.90;;;;;;5109507;28;20202;-73
2022/01/21 04:37:56;;;;;;;0.85;0.28;;;0.40;99.90;;;;;;5109589;28;20156;-72
2022/01/21 04:40:27;;;;;;;0.15;0.10;;;0.50;99.90;;;;;;5109416;28;20151;-73
2022/01/21 04:48:22;;;;;;;1.02;0.10;;;0.80;99.90;;;;;;5109363;28;20158;-72
2022/01/21 04:50:58;;;;;;;0.20;0.20;;;0.90;99.90;;;;;;5091150;28;20191;-73
2022/01/21 04:53:27;;;;;;;0.65;0.20;;;1.00;99.90;;;;;;5109197;28;20632;-73
2022/01/21 04:55:53;;;;;;;0.10;0.10;;;1.10;99.90;;;;;;5109058;28;20270;-72
2022/01/21 04:58:19;;;;;;;0.10;0.10;;;1.30;99.90;;;;;;5091005;28;20175;-73
2022/01/21 05:00:46;;;;;;;0.22;0.10;;;1.30;99.90;;;;;;5108832;28;20226;-73
2022/01/21 05:03:13;;;;;;;0.10;0.10;;;1.30;99.90;;;;;;5109130;28;20163;-72
2022/01/21 05:05:39;;;;;;;0.20;0.20;;;1.30;99.90;;;;;;5109081;28;20256;-73
2022/01/21 05:08:09;;;;;;;0.20;0.20;;;1.30;99.90;;;;;;5090868;28;20295;-72
2022/01/21 05:10:37;;;;;;;0.10;0.10;;;1.30;99.90;;;;;;5108908;28;20155;-73
2022/01/21 05:13:03;;;;;;;0.75;0.13;;;1.40;99.90;;;;;;5092065;28;20167;-72
2022/01/21 05:16:02;;;;;;;2.10;0.17;;;1.40;99.90;;;;;;5113058;28;20230;-73
2022/01/21 05:18:28;;;;;;;0.20;0.20;;;1.30;99.90;;;;;;5082172;28;20171;-73
2022/01/21 05:20:54;;;;;;;0.15;0.15;;;1.30;99.90;;;;;;5111824;28;20178;-72
2022/01/21 05:23:22;;;;;;;0.20;0.20;;;1.30;99.90;;;;;;5112950;28;20159;-73
2022/01/21 05:25:49;;;;;;;0.20;0.10;;;1.30;99.90;;;;;;5112783;28;20195;-73
2022/01/21 05:28:16;;;;;;;0.90;0.30;;;1.30;99.90;;;;;;5094514;28;20186;-74
2022/01/21 05:30:42;;;;;;;0.20;0.20;;;1.40;99.90;;;;;;5111558;28;20175;-73
2022/01/21 05:33:08;;;;;;;0.20;0.20;;;1.40;99.90;;;;;;5094466;28;20194;-73
2022/01/21 05:35:34;;;;;;;0.98;0.20;;;1.30;99.90;;;;;;5112486;28;20203;-73
2022/01/21 05:38:00;;;;;;;0.38;0.38;;;1.30;99.90;;;;;;5094244;28;20218;-73
2022/01/21 05:40:25;;;;;;;0.90;0.50;;;1.30;99.90;;;;;;5112520;28;20164;-73
2022/01/21 05:42:51;;;;;;;0.30;0.25;;;1.40;99.90;;;;;;5094238;28;20160;-73
2022/01/21 05:48:02;;;;;;;0.15;0.15;;;1.30;99.90;;;;;;5112694;28;20181;-73
2022/01/21 05:50:28;;;;;;;0.45;0.22;;;1.30;99.90;;;;;;5109591;27;20197;-73
2022/01/21 05:52:55;;;;;;;3.25;0.30;;;1.30;99.90;;;;;;5133065;27;20176;-72
2022/01/21 05:55:22;;;;;;;0.40;0.20;;;1.20;99.90;;;;;;5153003;27;20646;-73
2022/01/21 05:57:48;;;;;;;1.17;0.30;;;1.20;99.90;;;;;;5153060;27;20154;-73
2022/01/21 06:00:15;;;;;;;0.43;0.32;;;1.20;99.90;;;;;;5152665;27;20210;-72
2022/01/21 06:02:41;;;;;;;3.75;0.70;;;1.20;99.90;;;;;;5153190;27;20154;-73
2022/01/21 06:05:07;;;;;;;1.42;0.55;;;1.10;99.90;;;;;;5134499;27;20244;-73
2022/01/21 06:07:34;;;;;;;2.92;0.75;;;1.10;99.90;;;;;;5153088;27;20187;-72
2022/01/21 06:10:00;;;;;;;0.30;0.20;;;1.10;99.90;;;;;;5152776;27;20166;-72
2022/01/21 06:12:26;;;;;;;0.32;0.10;;;1.10;99.90;;;;;;5134226;27;20193;-74
2022/01/21 06:14:52;;;;;;;0.43;0.43;;;1.20;99.90;;;;;;5133981;27;20225;-73
2022/01/21 06:17:18;;;;;;;0.73;0.65;;;1.20;99.90;;;;;;5133625;27;20686;-74
2022/01/21 06:19:44;;;;;;;1.23;0.82;;;1.20;99.90;;;;;;5134237;27;20199;-73
2022/01/21 06:22:12;;;;;;;1.65;0.32;;;1.10;99.90;;;;;;5133910;27;20214;-73
2022/01/21 06:24:38;;;;;;;4.40;0.40;;;1.00;99.90;;;;;;5134094;27;20215;-73
2022/01/21 06:27:04;;;;;;;0.30;0.20;;;1.00;99.90;;;;;;5122051;28;20205;-72
2022/01/21 06:29:31;;;;;;;3.83;0.40;;;0.90;99.90;;;;;;5131606;28;20167;-73
2022/01/21 06:31:57;;;;;;;2.67;0.80;;;0.90;99.90;;;;;;5112732;28;20257;-73
2022/01/21 06:34:23;;;;;;;8.15;0.75;;;0.80;99.90;;;;;;5113340;28;20266;-74
2022/01/21 06:36:49;;;;;;;0.20;0.20;;;0.80;99.90;;;;;;5113404;28;20167;-74
2022/01/21 06:39:15;;;;;;;0.32;0.32;;;0.70;99.90;;;;;;5131599;28;20180;-73
2022/01/21 06:41:44;;;;;;;1.85;0.17;;;0.70;99.90;;;;;;5131386;28;20195;-74
2022/01/21 06:44:10;;;;;;;1.08;0.43;;;0.70;99.90;;;;;;5131465;28;20161;-73
2022/01/21 06:46:36;;;;;;;2.05;0.77;;;0.60;99.90;;;;;;5131385;28;20178;-73
2022/01/21 06:49:02;;;;;;;2.00;0.40;;;0.50;99.90;;;;;;5112432;28;20178;-74
2022/01/21 06:51:28;;;;;;;1.30;0.38;;;0.40;99.90;;;;;;5113033;28;20191;-72
2022/01/21 06:53:54;;;;;;;0.65;0.35;;;0.40;99.90;;;;;;5131223;28;20155;-73
2022/01/21 06:56:20;;;;;;;0.22;0.20;;;0.50;99.90;;;;;;5131436;28;20171;-73
2022/01/21 06:58:46;;;;;;;0.60;0.30;;;0.60;99.90;;;;;;5131104;28;20159;-74
2022/01/21 07:01:12;;;;;;;1.40;0.20;;;0.50;99.90;;;;;;5131198;28;20305;-73
2022/01/21 07:03:38;;;;;;;0.13;0.13;;;0.40;99.90;;;;;;5112989;28;20155;-73
2022/01/21 07:06:04;;;;;;;0.20;0.20;;;0.30;99.90;;;;;;5113043;28;20216;-73
2022/01/21 07:08:33;;;;;;;1.38;0.57;;;0.40;99.90;;;;;;5131295;28;20158;-73
2022/01/21 07:10:59;;;;;;;1.63;0.60;;;0.40;99.90;;;;;;5112797;28;20237;-74
2022/01/21 07:13:25;;;;;;;1.15;0.40;;;0.50;99.90;;;;;;5112632;28;20166;-73
2022/01/21 07:15:51;;;;;;;1.20;0.35;;;0.60;99.90;;;;;;5131049;28;20179;-74
2022/01/21 07:18:17;;;;;;;0.40;0.40;;;0.60;99.90;;;;;;5111676;28;20189;-73
2022/01/21 07:20:43;;;;;;;0.57;0.30;;;0.60;99.90;;;;;;5112409;28;20751;-73
2022/01/21 07:23:09;;;;;;;0.95;0.65;;;0.50;99.90;;;;;;5130890;28;20163;-73
2022/01/21 07:25:37;;;;;;;0.20;0.20;;;0.60;99.90;;;;;;5112437;28;20191;-72
2022/01/21 07:28:04;;;;;;;2.63;0.45;;;0.70;99.90;;;;;;5125310;28;20866;-73
2022/01/21 07:30:30;;;;;;;0.68;0.20;;;0.70;99.90;;;;;;5125869;28;20198;-73
2022/01/21 07:32:56;;;;;;;1.05;0.50;;;0.70;99.90;;;;;;5112294;28;20186;-74
2022/01/21 07:35:23;;;;;;;0.40;0.32;;;0.70;99.90;;;;;;5129906;28;20186;-73
2022/01/21 07:37:49;;;;;;;2.83;0.47;;;0.70;99.90;;;;;;5130660;28;20166;-74
2022/01/21 07:40:15;;;;;;;0.30;0.28;;;0.80;99.90;;;;;;5130214;28;20166;-74
2022/01/21 07:42:40;;;;;;;0.57;0.35;;;0.80;99.90;;;;;;5094934;28;20201;-75
2022/01/21 07:45:07;;;;;;;1.23;0.30;;;0.80;99.90;;;;;;5130438;28;20158;-75
2022/01/21 07:47:33;;;;;;;0.60;0.30;;;0.80;99.90;;;;;;5130642;28;20185;-74
2022/01/21 07:49:59;;;;;;;0.95;0.20;;;0.90;99.90;;;;;;5126662;28;20199;-75
2022/01/21 07:52:25;;;;;;;0.47;0.38;;;0.90;99.90;;;;;;5110982;28;20612;-74
2022/01/21 07:54:51;;;;;;;0.93;0.25;;;1.00;99.90;;;;;;5111392;28;20270;-74
2022/01/21 07:57:17;;;;;;;0.70;0.60;;;1.00;99.90;;;;;;5130065;28;20166;-75
2022/01/21 07:59:43;;;;;;;0.88;0.25;;;1.00;99.90;;;;;;5129614;28;20210;-75
2022/01/21 08:02:09;;;;;;;0.25;0.25;;;1.10;99.90;;;;;;5129475;28;20166;-75
2022/01/21 08:04:35;;;;;;;0.20;0.20;;;1.10;99.90;;;;;;5129377;28;20258;-75
2022/01/21 08:07:01;;;;;;;0.20;0.20;;;1.20;99.90;;;;;;5129326;28;20158;-75
2022/01/21 08:09:27;;;;;;;1.05;0.40;;;1.20;99.90;;;;;;5129359;28;20159;-76
2022/01/21 08:11:54;;;;;;;3.22;0.40;;;1.40;99.90;;;;;;5129393;28;20173;-75
2022/01/21 08:14:22;;;;;;;4.80;0.30;;;1.40;99.90;;;;;;5129258;28;20198;-75
2022/01/21 08:16:49;;;;;;;0.43;0.30;;;1.50;99.90;;;;;;5108796;28;20185;-75
2022/01/21 08:19:15;;;;;;;0.50;0.25;;;1.60;99.90;;;;;;5127380;28;20196;-75
2022/01/21 08:21:41;;;;;;;1.20;0.25;;;1.70;99.90;;;;;;5090465;28;20250;-76
2022/01/21 08:24:09;;;;;;;0.20;0.20;;;1.70;99.90;;;;;;5108604;28;20183;-75
2022/01/21 08:26:36;;;;;;;0.85;0.40;;;1.90;99.90;;;;;;5108392;28;20213;-75
2022/01/21 08:29:03;;;;;;;0.65;0.30;;;3.50;99.90;;;;;;5108610;28;20156;-75
2022/01/21 08:31:29;;;;;;;0.93;0.47;;;6.00;98.40;;;;;;5110553;28;20163;-74
2022/01/21 08:33:56;;;;;;;1.42;0.35;;;8.40;95.10;;;;;;5128994;28;20155;-75
2022/01/21 08:36:23;;;;;;;2.70;0.45;;;7.10;95.40;;;;;;5128862;28;20166;-74
2022/01/21 08:38:50;;;;;;;0.40;0.30;;;8.20;94.40;;;;;;5118159;28;20265;-75
2022/01/21 08:41:16;;;;;;;1.25;0.32;;;6.40;96.10;;;;;;5108495;28;20159;-76
2022/01/21 08:43:42;;;;;;;1.23;0.50;;;7.40;96.50;;;;;;5108527;28;20612;-74
2022/01/21 08:46:09;;;;;;;1.27;0.30;;;8.80;94.10;;;;;;5090087;28;20362;-75
2022/01/21 08:48:35;;;;;;;8.65;0.52;;;8.10;94.90;;;;;;5107235;28;20167;-74
2022/01/21 08:51:08;;;;;;;0.50;0.43;;;9.40;93.50;;;;;;5090015;28;20189;-74
2022/01/21 08:53:38;;;;;;;0.90;0.45;;;7.70;94.90;;;;;;5089777;28;20316;-74
2022/01/21 08:56:13;;;;;;;0.70;0.38;;;8.20;95.10;;;;;;5107035;28;20191;-74
2022/01/21 08:58:41;;;;;;;3.17;0.50;;;9.60;92.20;;;;;;5118223;28;20681;-74
2022/01/21 09:01:09;;;;;;;0.70;0.30;;;8.00;93.50;;;;;;5048777;28;1696561;-73
2022/01/21 09:03:37;;;;;;;3.83;0.60;;;7.00;93.80;;;;;;5109018;28;20239;-74
2022/01/21 09:06:03;;;;;;;1.63;0.17;;;8.40;94.20;;;;;;5108706;28;20191;-74
2022/01/21 09:08:30;;;;;;;2.67;0.45;;;8.00;93.90;;;;;;5108089;28;20643;-74
2022/01/21 09:11:00;;;;;;;0.43;0.40;;;9.40;93.00;;;;;;5106982;28;20175;-73
2022/01/21 09:13:29;;;;;;;1.55;0.40;;;7.90;92.90;;;;;;5105034;28;20178;-76
2022/01/21 09:15:59;;;;;;;0.90;0.47;;;5.30;94.70;;;;;;5110343;28;20214;-75
2022/01/21 09:21:18;;;;;;;2.63;0.52;;;7.50;94.60;;;;;;5123302;28;20186;-77
2022/01/21 09:23:47;;;;;;;0.30;0.17;;;7.50;92.80;;;;;;5125095;28;20269;-73
2022/01/21 09:26:15;;;;;;;0.80;0.30;;;6.70;94.10;;;;;;5109201;28;20175;-77
2022/01/21 09:28:41;;;;;;;2.50;0.60;;;4.90;95.30;;;;;;5108743;28;20250;-79
2022/01/21 09:31:07;;;;;;;0.35;0.30;;;4.50;95.70;;;;;;5127356;28;20167;-75
2022/01/21 09:33:33;;;;;;;0.85;0.30;;;4.50;96.20;;;;;;5107546;28;20190;-75
2022/01/21 09:35:59;;;;;;;0.22;0.20;;;5.10;95.80;;;;;;5127933;28;20194;-75
2022/01/21 09:38:26;;;;;;;1.38;0.38;;;5.50;95.30;;;;;;5127431;28;20167;-76
2022/01/21 09:40:53;;;;;;;0.73;0.30;;;5.60;94.80;;;;;;5109332;28;20173;-76
2022/01/21 09:43:21;;;;;;;1.02;0.40;;;5.10;95.50;;;;;;5125333;28;20640;-76
2022/01/21 09:45:51;;;;;;;1.58;0.30;;;5.30;95.90;;;;;;5109325;28;20194;-76
2022/01/21 09:48:23;;;;;;;1.27;0.63;;;6.00;95.00;;;;;;5124808;28;20159;-76
2022/01/21 09:50:56;;;;;;;4.03;0.50;;;5.40;95.20;;;;;;5109488;28;20171;-75
2022/01/21 09:53:27;;;;;;;2.28;0.63;;;5.20;95.50;;;;;;5127166;28;20166;-75
2022/01/21 09:55:54;;;;;;;0.40;0.25;;;5.00;95.70;;;;;;5108999;28;20194;-75
2022/01/21 09:58:21;;;;;;;2.33;0.50;;;5.70;95.20;;;;;;5127269;28;20222;-75
2022/01/21 10:00:47;;;;;;;1.45;0.80;;;5.00;95.40;;;;;;5131167;28;20277;-74
2022/01/21 10:03:15;;;;;;;4.93;2.53;;;5.30;95.60;;;;;;5112888;28;20167;-75
2022/01/21 10:05:46;;;;;;;2.35;1.10;;;5.50;95.50;;;;;;5113017;28;20194;-75
2022/01/21 10:08:14;;;;;;;2.22;0.70;;;6.50;94.40;;;;;;5112232;28;20166;-74
2022/01/21 10:10:43;;;;;;;3.53;1.08;;;6.70;94.90;;;;;;5112911;28;20178;-75
2022/01/21 10:13:14;;;;;;;7.63;0.65;;;6.10;93.60;;;;;;5131283;28;20162;-74
2022/01/21 10:15:40;;;;;;;3.67;0.60;;;5.60;93.90;;;;;;5128498;28;20201;-76
2022/01/21 10:18:16;;;;;;;3.63;1.15;;;4.80;94.70;;;;;;5127585;28;20186;-74
2022/01/21 10:21:04;;;;;;;0.80;0.40;;;5.00;94.40;;;;;;5110352;28;20174;-74
2022/01/21 10:23:34;;;;;;;0.65;0.20;;;5.50;94.30;;;;;;5130334;28;20158;-74
2022/01/21 10:26:05;;;;;;;1.00;0.30;;;5.40;93.80;;;;;;5104299;28;20267;-74
2022/01/21 10:28:31;;;;;;;0.77;0.40;;;5.60;93.40;;;;;;5092684;28;20224;-75
2022/01/21 10:31:18;;;;;;;2.35;0.30;;;5.80;94.00;;;;;;5093171;28;20167;-75
2022/01/21 10:33:45;;;;;;;1.05;0.30;;;6.20;93.20;;;;;;5110989;28;20152;-75
2022/01/21 10:36:28;;;;;;;6.82;0.70;;;6.10;93.00;;;;;;5093026;28;20275;-75
2022/01/21 10:39:28;;;;;;;1.33;0.40;;;5.80;93.40;;;;;;5092493;28;20175;-74
2022/01/21 10:41:57;;;;;;;0.63;0.32;;;6.30;93.30;;;;;;5111511;28;20166;-75
2022/01/21 10:44:30;;;;;;;0.70;0.22;;;5.40;93.10;;;;;;5092951;28;20294;-75
2022/01/21 10:47:08;;;;;;;0.73;0.40;;;6.30;92.50;;;;;;5076735;28;20183;-75
2022/01/21 10:49:39;;;;;;;1.85;0.40;;;5.70;92.50;;;;;;5092627;28;20671;-79
2022/01/21 10:52:06;;;;;;;1.25;0.55;;;6.50;91.70;;;;;;5105668;28;20207;-75
2022/01/21 10:54:32;;;;;;;0.60;0.30;;;6.40;92.50;;;;;;5113336;28;20231;-75
2022/01/21 10:57:14;;;;;;;2.30;0.65;;;5.70;92.00;;;;;;5113047;28;20163;-74
2022/01/21 10:59:52;;;;;;;0.55;0.30;;;5.50;92.70;;;;;;5112825;28;20234;-75
2022/01/21 11:02:41;;;;;;;0.60;0.30;;;5.50;93.40;;;;;;5131473;28;20184;-74
2022/01/21 11:05:16;;;;;;;2.47;0.20;;;5.10;93.30;;;;;;5112836;28;20198;-75
2022/01/21 11:07:51;;;;;;;0.60;0.35;;;5.70;92.30;;;;;;5112318;28;20177;-75
2022/01/21 11:10:32;;;;;;;1.05;0.20;;;5.90;92.70;;;;;;5130018;28;20154;-74
2022/01/21 11:13:03;;;;;;;5.88;0.63;;;6.30;92.90;;;;;;5131028;28;20155;-75
2022/01/21 11:15:56;;;;;;;0.47;0.20;;;7.00;92.50;;;;;;5130813;28;20198;-75
2022/01/21 11:18:29;;;;;;;2.83;0.40;;;7.50;91.10;;;;;;5130220;28;20201;-73
2022/01/21 11:21:07;;;;;;;1.25;0.60;;;7.60;91.30;;;;;;5130925;28;20151;-74
2022/01/21 11:23:37;;;;;;;0.52;0.43;;;7.60;90.70;;;;;;5130715;28;20620;-74
2022/01/21 11:26:09;;;;;;;0.40;0.35;;;6.00;91.10;;;;;;5100418;28;20191;-74
2022/01/21 11:28:50;;;;;;;1.45;0.40;;;5.70;91.10;;;;;;5108208;28;20206;-74
2022/01/21 11:31:28;;;;;;;0.25;0.25;;;6.10;90.30;;;;;;5110078;28;20236;-74
2022/01/21 11:33:54;;;;;;;0.75;0.40;;;5.30;91.10;;;;;;5109950;28;20163;-74
2022/01/21 11:36:20;;;;;;;1.13;0.60;;;5.30;91.60;;;;;;5091515;28;20199;-74
2022/01/21 11:38:48;;;;;;;0.90;0.60;;;5.60;91.50;;;;;;5091066;28;20178;-76
2022/01/21 11:41:16;;;;;;;1.58;0.40;;;5.00;91.50;;;;;;5109980;28;20155;-76
2022/01/21 11:43:52;;;;;;;2.83;0.45;;;5.60;91.60;;;;;;5110476;28;20164;-77
2022/01/21 11:48:50;;;;;;;0.40;0.40;;;6.60;90.50;;;;;;5109664;28;20182;-76
2022/01/21 11:51:20;;;;;;;1.55;0.95;;;6.40;91.70;;;;;;5111193;28;20155;-77
2022/01/21 11:53:52;;;;;;;3.90;0.60;;;6.20;91.60;;;;;;5130277;28;20159;-76
2022/01/21 11:56:54;;;;;;;3.33;0.70;;;6.50;91.40;;;;;;5130524;28;20221;-77
2022/01/21 12:02:13;;;;;;;3.60;0.57;;;6.30;91.40;;;;;;5150836;27;20188;-76
2022/01/21 12:04:40;;;;;;;1.70;0.55;;;6.50;91.70;;;;;;5150788;27;20194;-77
2022/01/21 12:07:44;;;;;;;0.85;0.50;;;7.10;91.80;;;;;;5150393;27;20231;-78
2022/01/21 12:10:18;;;;;;;1.48;0.50;;;7.20;90.20;;;;;;5149954;27;20154;-75
2022/01/21 12:19:05;;;;;;;3.75;0.22;;;6.50;90.80;;;;;;5145819;27;20192;-75
2022/01/21 12:21:04;;;;;;;0.88;0.38;;;6.40;90.80;;;;;;5118576;28;20178;-75
2022/01/21 12:23:41;;;;;;;2.60;0.30;;;6.70;90.40;;;;;;5129482;28;20154;-75
2022/01/21 12:26:23;;;;;;;0.65;0.50;;;7.60;90.80;;;;;;5117062;28;20220;-75
2022/01/21 12:28:52;;;;;;;2.38;0.35;;;8.10;87.80;;;;;;5113874;27;20177;-74
2022/01/21 12:31:19;;;;;;;1.90;0.30;;;7.70;90.00;;;;;;5149476;27;20169;-74
2022/01/21 12:34:13;;;;;;;0.93;0.20;;;8.50;90.30;;;;;;5150259;27;20162;-74
2022/01/21 12:36:55;;;;;;;1.30;0.38;;;9.10;85.70;;;;;;5150219;27;20157;-74
2022/01/21 12:39:44;;;;;;;0.15;0.15;;;8.40;88.00;;;;;;5131202;27;20209;-74
2022/01/21 12:42:24;;;;;;;0.30;0.30;;;7.70;90.10;;;;;;5130989;27;20164;-74
2022/01/21 12:45:17;;;;;;;0.60;0.35;;;5.50;92.60;;;;;;5150127;27;20212;-74
2022/01/21 12:47:46;;;;;;;1.60;0.32;;;5.20;92.30;;;;;;5149294;27;20178;-74
2022/01/21 12:50:19;;;;;;;0.82;0.40;;;5.20;92.60;;;;;;5131332;28;20166;-74
2022/01/21 12:58:15;;;;;;;0.55;0.30;;;4.60;92.10;;;;;;5148228;28;20420;-75
2022/01/21 13:00:41;;;;;;;0.20;0.20;;;4.00;93.50;;;;;;5130399;28;20225;-75
2022/01/21 13:03:19;;;;;;;0.43;0.20;;;4.10;93.50;;;;;;5130639;28;20237;-76
2022/01/21 13:06:17;;;;;;;0.30;0.30;;;4.50;94.00;;;;;;5149802;28;20186;-76
2022/01/21 13:08:52;;;;;;;0.68;0.40;;;4.70;94.50;;;;;;5117913;28;20213;-75
2022/01/21 13:11:25;;;;;;;0.55;0.50;;;4.60;93.40;;;;;;5129034;28;20173;-75
2022/01/21 13:14:53;;;;;;;0.43;0.30;;;4.70;93.40;;;;;;5115090;28;20197;-77
2022/01/21 13:17:01;;;;;;;1.02;0.30;;;4.30;93.40;;;;;;5132477;28;20182;-75
2022/01/21 13:19:48;;;;;;;1.58;0.40;;;3.70;93.90;;;;;;5133557;28;20206;-78
2022/01/21 13:22:30;;;;;;;1.98;0.50;;;3.70;94.60;;;;;;5109980;28;20193;-82
2022/01/21 13:25:03;;;;;;;1.65;0.73;;;3.50;93.60;;;;;;5125696;28;20635;-76
2022/01/21 13:27:30;;;;;;;0.75;0.52;;;3.20;94.10;;;;;;5090467;28;20171;-76
2022/01/21 13:30:03;;;;;;;0.68;0.32;;;3.30;94.30;;;;;;5108715;28;20160;-75
2022/01/21 13:32:29;;;;;;;4.32;1.02;;;3.30;94.30;;;;;;5108485;28;20156;-73
2022/01/21 13:35:05;;;;;;;0.55;0.50;;;3.40;95.20;;;;;;5110332;28;20194;-73
2022/01/21 13:37:31;;;;;;;1.00;0.90;;;3.50;94.90;;;;;;5112559;28;20171;-73
2022/01/21 13:39:57;;;;;;;1.50;0.40;;;3.50;94.10;;;;;;5110817;28;20530;-73
2022/01/21 13:42:26;;;;;;;1.02;0.45;;;3.40;94.50;;;;;;5112319;28;20561;-74
2022/01/21 13:44:54;;;;;;;0.13;0.13;;;3.30;94.40;;;;;;5111725;27;20250;-74
2022/01/21 13:47:47;;;;;;;2.05;0.30;;;3.20;94.80;;;;;;5119855;28;20199;-74
2022/01/21 13:50:22;;;;;;;0.30;0.25;;;3.20;94.70;;;;;;5081297;28;20183;-74
2022/01/21 13:52:52;;;;;;;1.15;0.30;;;3.10;94.10;;;;;;5140635;27;20191;-74
2022/01/21 13:55:42;;;;;;;1.75;0.40;;;3.10;94.80;;;;;;5146793;27;20194;-74
2022/01/21 13:58:24;;;;;;;0.30;0.30;;;3.10;95.00;;;;;;5132310;28;20155;-74
2022/01/21 14:01:08;;;;;;;0.45;0.20;;;2.80;94.60;;;;;;5110585;28;20250;-74
2022/01/21 14:03:40;;;;;;;0.40;0.22;;;3.00;95.00;;;;;;5111690;28;20202;-74
2022/01/21 14:06:07;;;;;;;0.32;0.30;;;3.00;94.80;;;;;;5110096;28;20189;-74
2022/01/21 14:08:43;;;;;;;1.00;0.70;;;3.00;94.60;;;;;;5109669;28;20282;-74
2022/01/21 14:11:12;;;;;;;3.28;0.32;;;2.90;94.60;;;;;;5111612;28;20151;-74
2022/01/21 14:13:42;;;;;;;0.20;0.20;;;3.00;95.00;;;;;;5110447;28;20195;-74
2022/01/21 14:16:11;;;;;;;1.45;0.38;;;3.10;95.10;;;;;;5110799;28;20183;-74